Arapahoe, North Carolina
Current Conditions -  °F | °C
As of 7:54 PM on Monday 20 Oct 2014 (Local Time) from KNKT Reporting Station
Few Clouds Few Clouds  
Wind Chill: 16°   Ceiling: Unl
Heat Index: 16°   Visibility: 10mi
Dew Point: 13°   Wind: 5mph
Humidity: 86%   Direction: 120°ESE
Pressure: 30.03"   Gusts: NA
Location:  35.03°N, 76.83°W
Report Text: KNKT 202354Z 12004KT 10SM FEW065 16/13 A3003 RMK AO2 SLP167 T01560133 10228 20156 55001 $
Loading
Personal Weather Stations






























Interactive Weather Map
Tropical Storm Tracking
New forecast layout! Learn more

10-Day Weather Forecast

Advertisements
Track Severe Weather on mobile